Time,TemperatureF,DewpointF,PressureIn,WindDirection,WindDirectionDegrees,WindSpeedMPH,WindSpeedGustMPH,Humidity,HourlyPrecipIn,Conditions,Clouds,dailyrainin,SolarRadiationWatts/m^2,SoftwareType,DateUTC
2013-01-26 00:03:00,28.0,27.0,-100.00,ENE,71,2.0,3.0,97,0.00,,,0.00,0.000000,,2013-01-26 05:03:00,
2013-01-26 00:33:00,36.0,36.0,-100.00,WSW,239,3.0,5.0,99,0.00,,,0.00,0.000000,,2013-01-26 05:33:00,
2013-01-26 00:42:00,36.0,36.0,-100.00,WSW,239,3.0,5.0,99,0.00,,,0.00,0.000000,,2013-01-26 05:42:00,
2013-01-26 00:53:00,36.0,36.0,-100.00,WSW,239,3.0,5.0,99,0.00,,,0.00,0.000000,,2013-01-26 05:53:00,
2013-01-26 01:03:00,36.0,36.0,-100.00,WSW,239,3.0,5.0,99,0.00,,,0.00,0.000000,,2013-01-26 06:03:00,
2013-01-26 01:32:00,39.0,39.0,-100.00,West,274,3.0,5.0,100,0.00,,,0.00,0.000000,,2013-01-26 06:32:00,
2013-01-26 01:42:00,39.0,39.0,-100.00,West,274,3.0,5.0,100,0.00,,,0.00,0.000000,,2013-01-26 06:42:00,
2013-01-26 01:52:00,39.0,39.0,-100.00,West,274,3.0,5.0,100,0.00,,,0.00,0.000000,,2013-01-26 06:52:00,
2013-01-26 02:02:00,39.0,39.0,-100.00,West,274,3.0,5.0,100,0.00,,,0.00,0.000000,,2013-01-26 07:02:00,
2013-01-26 02:33:00,38.0,38.0,-100.00,WNW,301,6.0,8.0,99,0.01,,,0.01,0.000000,,2013-01-26 07:33:00,
2013-01-26 02:42:00,38.0,38.0,-100.00,WNW,301,6.0,8.0,99,0.01,,,0.01,0.000000,,2013-01-26 07:42:00,
2013-01-26 02:52:00,38.0,38.0,-100.00,WNW,301,6.0,8.0,99,0.01,,,0.01,0.000000,,2013-01-26 07:52:00,
2013-01-26 03:02:00,38.0,38.0,-100.00,WNW,301,6.0,8.0,99,0.01,,,0.01,0.000000,,2013-01-26 08:02:00,
2013-01-26 03:32:00,38.0,36.0,-100.00,NW,311,6.0,9.0,93,0.02,,,0.03,0.000000,,2013-01-26 08:32:00,
2013-01-26 03:42:00,38.0,36.0,-100.00,NW,311,6.0,9.0,93,0.02,,,0.03,0.000000,,2013-01-26 08:42:00,
2013-01-26 03:54:00,38.0,36.0,-100.00,NW,311,6.0,9.0,93,0.02,,,0.03,0.000000,,2013-01-26 08:54:00,
2013-01-26 04:02:00,38.0,36.0,-100.00,NW,311,6.0,9.0,93,0.02,,,0.03,0.000000,,2013-01-26 09:02:00,
2013-01-26 04:32:00,36.0,34.0,-100.00,WNW,303,6.0,8.0,93,0.00,,,0.03,0.000000,,2013-01-26 09:32:00,
2013-01-26 04:42:00,36.0,34.0,-100.00,WNW,303,6.0,8.0,93,0.00,,,0.03,0.000000,,2013-01-26 09:42:00,
2013-01-26 04:52:00,36.0,34.0,-100.00,WNW,303,6.0,8.0,93,0.00,,,0.03,0.000000,,2013-01-26 09:52:00,
2013-01-26 05:01:00,36.0,34.0,-100.00,WNW,303,6.0,8.0,93,0.00,,,0.03,0.000000,,2013-01-26 10:01:00,
2013-01-26 05:32:00,37.0,34.0,-100.00,WNW,297,5.0,8.0,87,0.00,,,0.03,0.000000,,2013-01-26 10:32:00,
2013-01-26 05:43:00,37.0,34.0,-100.00,WNW,297,5.0,8.0,87,0.00,,,0.03,0.000000,,2013-01-26 10:43:00,
2013-01-26 05:52:00,37.0,34.0,-100.00,WNW,297,5.0,8.0,87,0.00,,,0.03,0.000000,,2013-01-26 10:52:00,
2013-01-26 06:02:00,37.0,34.0,-100.00,WNW,297,5.0,8.0,87,0.00,,,0.03,0.000000,,2013-01-26 11:02:00,
2013-01-26 06:32:00,37.0,33.0,-100.00,NW,315,6.0,8.0,86,0.00,,,0.03,0.000000,,2013-01-26 11:32:00,
2013-01-26 06:42:00,37.0,33.0,-100.00,NW,315,6.0,8.0,86,0.00,,,0.03,0.000000,,2013-01-26 11:42:00,
2013-01-26 06:52:00,37.0,33.0,-100.00,NW,315,6.0,8.0,86,0.00,,,0.03,0.000000,,2013-01-26 11:52:00,
2013-01-26 07:02:00,37.0,33.0,-100.00,NW,315,6.0,8.0,86,0.00,,,0.03,0.000000,,2013-01-26 12:02:00,
2013-01-26 07:33:00,39.0,30.0,-100.00,NW,320,6.0,9.0,70,0.00,,,0.03,0.000000,,2013-01-26 12:33:00,
2013-01-26 07:42:00,39.0,30.0,-100.00,NW,320,6.0,9.0,70,0.00,,,0.03,0.000000,,2013-01-26 12:42:00,
2013-01-26 07:53:00,39.0,30.0,-100.00,NW,320,6.0,9.0,70,0.00,,,0.03,0.000000,,2013-01-26 12:53:00,
2013-01-26 08:03:00,39.0,30.0,-100.00,NW,320,6.0,9.0,70,0.00,,,0.03,0.000000,,2013-01-26 13:03:00,
2013-01-26 08:33:00,40.0,26.0,-100.00,WNW,303,5.0,8.0,58,0.00,,,0.03,6.000000,,2013-01-26 13:33:00,
2013-01-26 08:42:00,40.0,26.0,-100.00,WNW,303,5.0,8.0,58,0.00,,,0.03,6.000000,,2013-01-26 13:42:00,
2013-01-26 08:53:00,40.0,26.0,-100.00,WNW,303,5.0,8.0,58,0.00,,,0.03,6.000000,,2013-01-26 13:53:00,
2013-01-26 09:03:00,40.0,26.0,-100.00,WNW,303,5.0,8.0,58,0.00,,,0.03,6.000000,,2013-01-26 14:03:00,
2013-01-26 09:32:00,43.0,22.0,-100.00,WNW,291,3.0,6.0,42,0.02,,,0.05,60.000000,,2013-01-26 14:32:00,
2013-01-26 09:43:00,43.0,22.0,-100.00,WNW,291,3.0,6.0,42,0.02,,,0.05,60.000000,,2013-01-26 14:43:00,
2013-01-26 09:53:00,43.0,22.0,-100.00,WNW,291,3.0,6.0,42,0.02,,,0.05,60.000000,,2013-01-26 14:53:00,
2013-01-26 10:03:00,43.0,22.0,-100.00,WNW,291,3.0,6.0,42,0.02,,,0.05,60.000000,,2013-01-26 15:03:00,
2013-01-26 10:33:00,42.0,27.0,-100.00,WNW,296,2.0,5.0,54,0.02,,,0.07,112.000000,,2013-01-26 15:33:00,
2013-01-26 10:43:00,42.0,27.0,-100.00,WNW,296,2.0,5.0,54,0.02,,,0.07,112.000000,,2013-01-26 15:43:00,
2013-01-26 10:53:00,42.0,27.0,-100.00,WNW,296,2.0,5.0,54,0.02,,,0.07,112.000000,,2013-01-26 15:53:00,
2013-01-26 11:02:00,42.0,27.0,-100.00,WNW,296,2.0,5.0,54,0.02,,,0.07,112.000000,,2013-01-26 16:02:00,
2013-01-26 11:33:00,45.0,33.0,-100.00,SE,137,1.0,4.0,62,0.04,,,0.11,239.000000,,2013-01-26 16:33:00,
2013-01-26 11:43:00,45.0,33.0,-100.00,SE,137,1.0,4.0,62,0.04,,,0.11,239.000000,,2013-01-26 16:43:00,
2013-01-26 11:53:00,45.0,33.0,-100.00,SE,137,1.0,4.0,62,0.04,,,0.11,239.000000,,2013-01-26 16:53:00,
2013-01-26 12:03:00,45.0,33.0,-100.00,SE,137,1.0,4.0,62,0.04,,,0.11,239.000000,,2013-01-26 17:03:00,
2013-01-26 12:33:00,47.0,28.0,-100.00,ESE,123,2.0,4.0,48,0.00,,,0.11,306.000000,,2013-01-26 17:33:00,
2013-01-26 12:42:00,47.0,28.0,-100.00,ESE,123,2.0,4.0,48,0.00,,,0.11,306.000000,,2013-01-26 17:42:00,
2013-01-26 12:53:00,47.0,28.0,-100.00,ESE,123,2.0,4.0,48,0.00,,,0.11,306.000000,,2013-01-26 17:53:00,
2013-01-26 13:03:00,47.0,28.0,-100.00,ESE,123,2.0,4.0,48,0.00,,,0.11,306.000000,,2013-01-26 18:03:00,
2013-01-26 13:33:00,49.0,40.0,-100.00,SE,126,3.0,4.0,71,0.00,,,0.11,374.000000,,2013-01-26 18:33:00,
2013-01-26 13:42:00,49.0,40.0,-100.00,SE,126,3.0,4.0,71,0.00,,,0.11,374.000000,,2013-01-26 18:42:00,
2013-01-26 13:53:00,49.0,40.0,-100.00,SE,126,3.0,4.0,71,0.00,,,0.11,374.000000,,2013-01-26 18:53:00,
2013-01-26 14:03:00,49.0,40.0,-100.00,SE,126,3.0,4.0,71,0.00,,,0.11,374.000000,,2013-01-26 19:03:00,
2013-01-26 14:33:00,49.0,36.0,-100.00,SE,132,3.0,5.0,61,0.00,,,0.11,372.000000,,2013-01-26 19:33:00,
2013-01-26 14:43:00,49.0,36.0,-100.00,SE,132,3.0,5.0,61,0.00,,,0.11,372.000000,,2013-01-26 19:43:00,
2013-01-26 14:53:00,49.0,36.0,-100.00,SE,132,3.0,5.0,61,0.00,,,0.11,372.000000,,2013-01-26 19:53:00,
2013-01-26 15:02:00,49.0,36.0,-100.00,SE,132,3.0,5.0,61,0.00,,,0.11,372.000000,,2013-01-26 20:02:00,
2013-01-26 15:32:00,50.0,35.0,-100.00,ESE,120,3.0,5.0,56,0.00,,,0.11,257.000000,,2013-01-26 20:32:00,
2013-01-26 15:42:00,50.0,35.0,-100.00,ESE,120,3.0,5.0,56,0.00,,,0.11,257.000000,,2013-01-26 20:42:00,
2013-01-26 15:52:00,50.0,35.0,-100.00,ESE,120,3.0,5.0,56,0.00,,,0.11,257.000000,,2013-01-26 20:52:00,
2013-01-26 16:03:00,50.0,35.0,-100.00,ESE,120,3.0,5.0,56,0.00,,,0.11,257.000000,,2013-01-26 21:03:00,
2013-01-26 16:32:00,51.0,34.0,-100.00,ESE,122,3.0,6.0,52,0.00,,,0.11,275.000000,,2013-01-26 21:32:00,
2013-01-26 16:43:00,51.0,34.0,-100.00,ESE,122,3.0,6.0,52,0.00,,,0.11,275.000000,,2013-01-26 21:43:00,
2013-01-26 16:52:00,51.0,34.0,-100.00,ESE,122,3.0,6.0,52,0.00,,,0.11,275.000000,,2013-01-26 21:52:00,
2013-01-26 17:02:00,51.0,34.0,-100.00,ESE,122,3.0,6.0,52,0.00,,,0.11,275.000000,,2013-01-26 22:02:00,
2013-01-26 17:32:00,49.0,33.0,-100.00,ESE,118,3.0,5.0,54,0.00,,,0.11,106.000000,,2013-01-26 22:32:00,
2013-01-26 17:42:00,49.0,33.0,-100.00,ESE,118,3.0,5.0,54,0.00,,,0.11,106.000000,,2013-01-26 22:42:00,
2013-01-26 17:52:00,49.0,33.0,-100.00,ESE,118,3.0,5.0,54,0.00,,,0.11,106.000000,,2013-01-26 22:52:00,
2013-01-26 18:02:00,49.0,33.0,-100.00,ESE,118,3.0,5.0,54,0.00,,,0.11,106.000000,,2013-01-26 23:02:00,
2013-01-26 18:33:00,45.0,31.0,-100.00,NE,54,2.0,3.0,58,0.00,,,0.11,19.000000,,2013-01-26 23:33:00,
2013-01-26 18:42:00,45.0,31.0,-100.00,NE,54,2.0,3.0,58,0.00,,,0.11,19.000000,,2013-01-26 23:42:00,
2013-01-26 18:52:00,45.0,31.0,-100.00,NE,54,2.0,3.0,58,0.00,,,0.11,19.000000,,2013-01-26 23:52:00,
2013-01-26 19:02:00,45.0,31.0,-100.00,NE,54,2.0,3.0,58,0.00,,,0.11,19.000000,,2013-01-27 00:02:00,
2013-01-26 19:32:00,44.0,31.0,-100.00,ESE,108,2.0,3.0,60,0.00,,,0.11,0.000000,,2013-01-27 00:32:00,
2013-01-26 19:42:00,44.0,31.0,-100.00,ESE,108,2.0,3.0,60,0.00,,,0.11,0.000000,,2013-01-27 00:42:00,
2013-01-26 19:52:00,44.0,31.0,-100.00,ESE,108,2.0,3.0,60,0.00,,,0.11,0.000000,,2013-01-27 00:52:00,
2013-01-26 20:01:00,44.0,31.0,-100.00,ESE,108,2.0,3.0,60,0.00,,,0.11,0.000000,,2013-01-27 01:01:00,
2013-01-26 20:32:00,43.0,31.0,-100.00,NE,50,2.0,4.0,62,0.00,,,0.11,0.000000,,2013-01-27 01:32:00,
2013-01-26 20:42:00,43.0,31.0,-100.00,NE,50,2.0,4.0,62,0.00,,,0.11,0.000000,,2013-01-27 01:42:00,
2013-01-26 20:52:00,43.0,31.0,-100.00,NE,50,2.0,4.0,62,0.00,,,0.11,0.000000,,2013-01-27 01:52:00,
2013-01-26 21:01:00,43.0,31.0,-100.00,NE,50,2.0,4.0,62,0.00,,,0.11,0.000000,,2013-01-27 02:01:00,
2013-01-26 21:32:00,42.0,32.0,-100.00,NNE,21,2.0,3.0,67,0.00,,,0.11,0.000000,,2013-01-27 02:32:00,
2013-01-26 21:42:00,42.0,32.0,-100.00,NNE,21,2.0,3.0,67,0.00,,,0.11,0.000000,,2013-01-27 02:42:00,
2013-01-26 21:52:00,42.0,32.0,-100.00,NNE,21,2.0,3.0,67,0.00,,,0.11,0.000000,,2013-01-27 02:52:00,
2013-01-26 22:02:00,42.0,32.0,-100.00,NNE,21,2.0,3.0,67,0.00,,,0.11,0.000000,,2013-01-27 03:02:00,
2013-01-26 22:32:00,42.0,31.0,-100.00,North,358,2.0,4.0,64,0.00,,,0.11,0.000000,,2013-01-27 03:32:00,
2013-01-26 22:42:00,42.0,31.0,-100.00,North,358,2.0,4.0,64,0.00,,,0.11,0.000000,,2013-01-27 03:42:00,
2013-01-26 22:52:00,42.0,31.0,-100.00,North,358,2.0,4.0,64,0.00,,,0.11,0.000000,,2013-01-27 03:52:00,
2013-01-26 23:02:00,42.0,31.0,-100.00,North,358,2.0,4.0,64,0.00,,,0.11,0.000000,,2013-01-27 04:02:00,
2013-01-26 23:32:00,41.0,30.0,-100.00,North,7,2.0,3.0,64,0.00,,,0.11,0.000000,,2013-01-27 04:32:00,
2013-01-26 23:42:00,41.0,30.0,-100.00,North,7,2.0,3.0,64,0.00,,,0.11,0.000000,,2013-01-27 04:42:00,
2013-01-26 23:52:00,41.0,30.0,-100.00,North,7,2.0,3.0,64,0.00,,,0.11,0.000000,,2013-01-27 04:52:00,